Storm Events Database

Event Details

Event Hail
Magnitude 1.00 in.
State OKLAHOMA
County/Area MCCLAIN
WFO OUN
Begin Date 03/31/2008 12:19:00 CST-6
Begin Range 3
Begin Azimuth S
Begin Location NEWCASTLE
Begin Lat/Lon 35.21/-97.6
End Date 03/31/2008 12:19:00 CST-6
Deaths Direct/Indirect 0/0 (fatality details below, when available...)
Injuries Direct/Indirect 0/0
Property Damage 0.00K
Crop Damage 0.00K
Episode Narrative Another active day for severe weather occurred during the afternoon and early evening hours over Oklahoma on the 31st. A cold front moved from northwest to southeast, entering northwest Oklahoma during the morning hours, and moving into southeast Oklahoma by early to mid evening. Ahead of the cold front, deep Gulf moisture was in place, with afternoon heating warming temperatures into the 70s. Thunderstorms developed along and ahead of the front, with the strongest storms occurring over southern and southeast Oklahoma. The thunderstorms occurred two waves, one occurred during the late morning early afternoon hours, with another wave occurring during the mid to late afternoon hours. The first wave of thunderstorms was mainly a large hail threat, although a brief tornado did occur in Noble county. Very large hail wast the main threat with the second threat, with strong winds and heavy rainfall another concern. The tornado in Noble county did some damage to a barn structure. The hail and strong winds also did some damage in the afternoon. Monetary damages estimated.
Event Narrative


All events for this episode:

Location County/Zone St. Date Time T.Z. Type Mag Dth Inj PrD CrD
Totals: 0 0 52.00K 0.00K
PERRY NOBLE CO. OK 03/31/2008 08:20 CST-6 Tornado EF0 0 0 5.00K 0.00K
ANADARKO CADDO CO. OK 03/31/2008 10:20 CST-6 Hail 0.88 in. 0 0 0.00K 0.00K
ANADARKO CADDO CO. OK 03/31/2008 10:23 CST-6 Hail 1.00 in. 0 0 0.00K 0.00K
EL RENO CANADIAN CO. OK 03/31/2008 10:30 CST-6 Hail 0.75 in. 0 0 0.00K 0.00K
ANADARKO CADDO CO. OK 03/31/2008 10:35 CST-6 Hail 0.88 in. 0 0 0.00K 0.00K
TRYON LINCOLN CO. OK 03/31/2008 11:17 CST-6 Hail 0.75 in. 0 0 0.00K 0.00K
OKLAHOMA CITY OKLAHOMA CO. OK 03/31/2008 11:42 CST-6 Hail 0.88 in. 0 0 0.00K 0.00K
MOORE CLEVELAND CO. OK 03/31/2008 11:44 CST-6 Hail 0.75 in. 0 0 0.00K 0.00K
MOORE CLEVELAND CO. OK 03/31/2008 11:46 CST-6 Hail 1.00 in. 0 0 0.00K 0.00K
MOORE CLEVELAND CO. OK 03/31/2008 11:48 CST-6 Hail 1.00 in. 0 0 0.00K 0.00K
NEWCASTLE MCCLAIN CO. OK 03/31/2008 11:55 CST-6 Hail 0.75 in. 0 0 0.00K 0.00K
MOORE CLEVELAND CO. OK 03/31/2008 11:56 CST-6 Hail 0.75 in. 0 0 0.00K 0.00K
MOORE CLEVELAND CO. OK 03/31/2008 12:02 CST-6 Hail 1.00 in. 0 0 0.00K 0.00K
NEWCASTLE MCCLAIN CO. OK 03/31/2008 12:19 CST-6 Hail 1.00 in. 0 0 0.00K 0.00K
NORMAN CLEVELAND CO. OK 03/31/2008 12:25 CST-6 Hail 1.25 in. 0 0 0.00K 0.00K
NORMAN CLEVELAND CO. OK 03/31/2008 12:27 CST-6 Hail 1.00 in. 0 0 0.00K 0.00K
PRAGUE LINCOLN CO. OK 03/31/2008 12:30 CST-6 Hail 1.50 in. 0 0 7.00K 0.00K
NORMAN CLEVELAND CO. OK 03/31/2008 12:30 CST-6 Hail 1.75 in. 0 0 0.00K 0.00K
MEEKER LINCOLN CO. OK 03/31/2008 12:30 CST-6 Hail 1.75 in. 0 0 0.00K 0.00K
SPARKS LINCOLN CO. OK 03/31/2008 12:48 CST-6 Hail 1.00 in. 0 0 0.00K 0.00K
NOBLE CLEVELAND CO. OK 03/31/2008 12:50 CST-6 Hail 0.75 in. 0 0 0.00K 0.00K
LOCO STEPHENS CO. OK 03/31/2008 13:20 CST-6 Hail 1.75 in. 0 0 0.00K 0.00K
TECUMSEH POTTAWATOMIE CO. OK 03/31/2008 13:20 CST-6 Hail 1.00 in. 0 0 0.00K 0.00K
TECUMSEH POTTAWATOMIE CO. OK 03/31/2008 13:23 CST-6 Hail 0.88 in. 0 0 0.00K 0.00K
ADA PONTOTOC CO. OK 03/31/2008 13:25 CST-6 Hail 1.00 in. 0 0 0.00K 0.00K
SULPHUR MURRAY CO. OK 03/31/2008 14:30 CST-6 Hail 2.00 in. 0 0 15.00K 0.00K
STONEWALL PONTOTOC CO. OK 03/31/2008 14:30 CST-6 Hail 1.00 in. 0 0 0.00K 0.00K
SULPHUR MURRAY CO. OK 03/31/2008 14:30 CST-6 Hail 2.50 in. 0 0 0.00K 0.00K
SULPHUR MURRAY CO. OK 03/31/2008 14:32 CST-6 Hail 1.50 in. 0 0 0.00K 0.00K
PONTOTOC JOHNSTON CO. OK 03/31/2008 14:55 CST-6 Hail 1.00 in. 0 0 0.00K 0.00K
SULPHUR MURRAY CO. OK 03/31/2008 14:59 CST-6 Hail 0.88 in. 0 0 0.00K 0.00K
SULPHUR MURRAY CO. OK 03/31/2008 15:02 CST-6 Hail 1.25 in. 0 0 0.00K 0.00K
ROFF PONTOTOC CO. OK 03/31/2008 15:25 CST-6 Hail 1.75 in. 0 0 0.00K 0.00K
LITTLE CITY MARSHALL CO. OK 03/31/2008 15:55 CST-6 Hail 1.75 in. 0 0 0.00K 0.00K
CHOCKIE ATOKA CO. OK 03/31/2008 16:12 CST-6 Hail 0.75 in. 0 0 0.00K 0.00K
SILO BRYAN CO. OK 03/31/2008 16:24 CST-6 Hail 2.50 in. 0 0 0.00K 0.00K
ARMSTRONG BRYAN CO. OK 03/31/2008 16:26 CST-6 Hail 2.50 in. 0 0 0.00K 0.00K
CADDO BRYAN CO. OK 03/31/2008 16:28 CST-6 Hail 1.75 in. 0 0 0.00K 0.00K
KENEFIC BRYAN CO. OK 03/31/2008 16:28 CST-6 Hail 2.50 in. 0 0 0.00K 0.00K
KENEFIC BRYAN CO. OK 03/31/2008 16:28 CST-6 Hail 2.00 in. 0 0 0.00K 0.00K
SILO BRYAN CO. OK 03/31/2008 16:34 CST-6 Hail 2.75 in. 0 0 0.00K 0.00K
BOKCHITO BRYAN CO. OK 03/31/2008 16:52 CST-6 Hail 1.00 in. 0 0 0.00K 0.00K
BOKCHITO BRYAN CO. OK 03/31/2008 16:52 CST-6 Hail 1.00 in. 0 0 0.00K 0.00K
BOKCHITO BRYAN CO. OK 03/31/2008 16:55 CST-6 Thunderstorm Wind 52 kts. EG 0 0 25.00K 0.00K
FARRIS ATOKA CO. OK 03/31/2008 17:15 CST-6 Hail 2.50 in. 0 0 0.00K 0.00K
FARRIS ATOKA CO. OK 03/31/2008 17:15 CST-6 Hail 2.50 in. 0 0 0.00K 0.00K
LANE ATOKA CO. OK 03/31/2008 18:10 CST-6 Hail 1.75 in. 0 0 0.00K 0.00K
ATOKA ATOKA CO. OK 03/31/2008 18:10 CST-6 Hail 2.50 in. 0 0 0.00K 0.00K
LANE ATOKA CO. OK 03/31/2008 18:10 CST-6 Hail 1.75 in. 0 0 0.00K 0.00K
LANE ATOKA CO. OK 03/31/2008 18:31 CST-6 Hail 2.50 in. 0 0 0.00K 0.00K
CANEY ATOKA CO. OK 03/31/2008 18:55 CST-6 Hail 0.75 in. 0 0 0.00K 0.00K
Totals: 0 0 52.00K 0.00K